sensor_id;sensor_type;location;lat;lon;timestamp;pressure;altitude;pressure_sealevel;temperature;humidity
53651;BME280;39552;45.776;15.892;2023-01-05T00:01:48;101105.59;;;6.02;100.00
53651;BME280;39552;45.776;15.892;2023-01-05T00:04:31;101095.78;;;6.01;100.00
53651;BME280;39552;45.776;15.892;2023-01-05T00:10:34;101082.44;;;5.98;100.00
53651;BME280;39552;45.776;15.892;2023-01-05T00:13:11;101084.22;;;5.99;100.00
53651;BME280;39552;45.776;15.892;2023-01-05T00:16:12;101109.91;;;6.41;100.00
53651;BME280;39552;45.776;15.892;2023-01-05T00:18:48;101097.91;;;6.21;100.00
53651;BME280;39552;45.776;15.892;2023-01-05T00:21:18;101096.63;;;6.35;100.00
53651;BME280;39552;45.776;15.892;2023-01-05T00:24:02;101082.69;;;6.53;100.00
53651;BME280;39552;45.776;15.892;2023-01-05T00:26:43;101075.50;;;6.54;100.00
53651;BME280;39552;45.776;15.892;2023-01-05T00:29:22;101079.75;;;6.61;100.00
53651;BME280;39552;45.776;15.892;2023-01-05T00:32:00;101068.97;;;6.31;100.00
53651;BME280;39552;45.776;15.892;2023-01-05T00:34:37;101091.22;;;6.36;100.00
53651;BME280;39552;45.776;15.892;2023-01-05T00:37:32;101092.22;;;6.34;100.00
53651;BME280;39552;45.776;15.892;2023-01-05T00:40:10;101094.31;;;6.54;100.00
53651;BME280;39552;45.776;15.892;2023-01-05T00:42:50;101072.88;;;6.19;100.00
53651;BME280;39552;45.776;15.892;2023-01-05T00:45:20;101072.09;;;6.16;100.00
53651;BME280;39552;45.776;15.892;2023-01-05T00:47:48;101030.09;;;6.13;100.00
53651;BME280;39552;45.776;15.892;2023-01-05T00:50:29;101028.09;;;6.20;100.00
53651;BME280;39552;45.776;15.892;2023-01-05T00:53:13;101038.16;;;6.13;100.00
53651;BME280;39552;45.776;15.892;2023-01-05T00:56:03;101046.63;;;5.98;100.00
53651;BME280;39552;45.776;15.892;2023-01-05T00:58:41;101036.97;;;5.89;100.00
53651;BME280;39552;45.776;15.892;2023-01-05T01:01:13;101013.84;;;5.85;100.00
53651;BME280;39552;45.776;15.892;2023-01-05T01:07:02;101010.91;;;5.61;100.00
53651;BME280;39552;45.776;15.892;2023-01-05T01:09:43;101010.63;;;5.38;100.00
53651;BME280;39552;45.776;15.892;2023-01-05T01:12:14;101049.31;;;5.63;100.00
53651;BME280;39552;45.776;15.892;2023-01-05T01:15:13;101054.38;;;5.41;100.00
53651;BME280;39552;45.776;15.892;2023-01-05T01:18:26;101049.78;;;5.79;100.00
53651;BME280;39552;45.776;15.892;2023-01-05T01:21:24;101036.47;;;5.76;100.00
53651;BME280;39552;45.776;15.892;2023-01-05T01:24:02;101035.00;;;5.64;100.00
53651;BME280;39552;45.776;15.892;2023-01-05T01:26:38;101019.31;;;5.13;100.00
53651;BME280;39552;45.776;15.892;2023-01-05T01:32:14;100994.97;;;5.55;100.00
53651;BME280;39552;45.776;15.892;2023-01-05T01:35:08;100992.97;;;5.95;100.00
53651;BME280;39552;45.776;15.892;2023-01-05T01:37:47;100999.38;;;5.89;100.00
53651;BME280;39552;45.776;15.892;2023-01-05T01:40:26;101009.56;;;6.10;100.00
53651;BME280;39552;45.776;15.892;2023-01-05T01:43:10;101016.63;;;6.15;100.00
53651;BME280;39552;45.776;15.892;2023-01-05T01:49:05;101003.88;;;6.21;100.00
53651;BME280;39552;45.776;15.892;2023-01-05T01:51:46;101009.22;;;6.23;100.00
53651;BME280;39552;45.776;15.892;2023-01-05T01:54:30;101009.22;;;6.23;100.00
53651;BME280;39552;45.776;15.892;2023-01-05T01:57:18;100993.28;;;6.17;100.00
53651;BME280;39552;45.776;15.892;2023-01-05T01:59:55;100985.44;;;6.09;100.00
53651;BME280;39552;45.776;15.892;2023-01-05T02:02:39;101004.47;;;6.31;100.00
53651;BME280;39552;45.776;15.892;2023-01-05T02:05:21;100990.59;;;6.17;100.00
53651;BME280;39552;45.776;15.892;2023-01-05T02:08:26;100967.44;;;6.13;100.00
53651;BME280;39552;45.776;15.892;2023-01-05T02:11:09;100979.72;;;6.20;100.00
53651;BME280;39552;45.776;15.892;2023-01-05T02:14:14;100962.19;;;6.08;100.00
53651;BME280;39552;45.776;15.892;2023-01-05T02:17:09;100987.88;;;6.18;100.00
53651;BME280;39552;45.776;15.892;2023-01-05T02:20:34;100954.34;;;6.00;100.00
53651;BME280;39552;45.776;15.892;2023-01-05T02:26:52;100936.28;;;6.05;100.00
53651;BME280;39552;45.776;15.892;2023-01-05T02:29:55;100953.06;;;6.14;100.00
53651;BME280;39552;45.776;15.892;2023-01-05T02:32:49;100929.91;;;6.09;100.00
53651;BME280;39552;45.776;15.892;2023-01-05T02:35:38;100934.66;;;6.29;100.00
53651;BME280;39552;45.776;15.892;2023-01-05T02:38:31;100927.16;;;6.11;100.00
53651;BME280;39552;45.776;15.892;2023-01-05T02:41:21;100908.78;;;5.97;100.00
53651;BME280;39552;45.776;15.892;2023-01-05T02:47:34;100907.03;;;5.96;100.00
53651;BME280;39552;45.776;15.892;2023-01-05T02:53:28;100930.13;;;6.02;100.00
53651;BME280;39552;45.776;15.892;2023-01-05T02:56:35;100904.13;;;5.72;100.00
53651;BME280;39552;45.776;15.892;2023-01-05T02:59:26;100898.75;;;5.72;100.00
53651;BME280;39552;45.776;15.892;2023-01-05T03:02:28;100925.28;;;5.83;100.00
53651;BME280;39552;45.776;15.892;2023-01-05T03:05:18;100895.47;;;5.61;100.00
53651;BME280;39552;45.776;15.892;2023-01-05T03:07:52;100907.06;;;5.63;100.00
53651;BME280;39552;45.776;15.892;2023-01-05T03:10:55;100892.50;;;5.72;100.00
53651;BME280;39552;45.776;15.892;2023-01-05T03:13:32;100882.81;;;5.66;100.00
53651;BME280;39552;45.776;15.892;2023-01-05T03:16:28;100878.47;;;5.62;100.00
53651;BME280;39552;45.776;15.892;2023-01-05T03:19:15;100887.97;;;5.74;100.00
53651;BME280;39552;45.776;15.892;2023-01-05T03:22:04;100876.97;;;5.83;100.00
53651;BME280;39552;45.776;15.892;2023-01-05T03:24:57;100886.69;;;5.87;100.00
53651;BME280;39552;45.776;15.892;2023-01-05T03:27:52;100896.44;;;5.90;100.00
53651;BME280;39552;45.776;15.892;2023-01-05T03:30:43;100882.25;;;5.85;100.00
53651;BME280;39552;45.776;15.892;2023-01-05T03:33:28;100900.22;;;5.83;100.00
53651;BME280;39552;45.776;15.892;2023-01-05T03:36:29;100871.47;;;5.57;100.00
53651;BME280;39552;45.776;15.892;2023-01-05T03:42:29;100877.97;;;5.48;100.00
53651;BME280;39552;45.776;15.892;2023-01-05T03:45:26;100887.25;;;5.67;100.00
53651;BME280;39552;45.776;15.892;2023-01-05T03:48:23;100851.50;;;5.65;100.00
53651;BME280;39552;45.776;15.892;2023-01-05T03:51:06;100858.66;;;5.66;100.00
53651;BME280;39552;45.776;15.892;2023-01-05T03:53:50;100845.97;;;5.71;100.00
53651;BME280;39552;45.776;15.892;2023-01-05T03:56:35;100842.25;;;5.46;100.00
53651;BME280;39552;45.776;15.892;2023-01-05T03:59:16;100869.41;;;5.96;100.00
53651;BME280;39552;45.776;15.892;2023-01-05T04:02:02;100866.81;;;5.93;100.00
53651;BME280;39552;45.776;15.892;2023-01-05T04:04:52;100845.97;;;5.71;100.00
53651;BME280;39552;45.776;15.892;2023-01-05T04:07:38;100853.84;;;5.78;100.00
53651;BME280;39552;45.776;15.892;2023-01-05T04:10:35;100848.16;;;5.59;100.00
53651;BME280;39552;45.776;15.892;2023-01-05T04:16:17;100831.81;;;5.66;100.00
53651;BME280;39552;45.776;15.892;2023-01-05T04:19:05;100841.38;;;5.75;100.00
53651;BME280;39552;45.776;15.892;2023-01-05T04:21:52;100824.69;;;5.65;100.00
53651;BME280;39552;45.776;15.892;2023-01-05T04:24:36;100833.56;;;5.67;100.00
53651;BME280;39552;45.776;15.892;2023-01-05T04:27:18;100832.75;;;5.64;100.00
53651;BME280;39552;45.776;15.892;2023-01-05T04:30:05;100846.97;;;5.67;100.00
53651;BME280;39552;45.776;15.892;2023-01-05T04:33:01;100845.84;;;5.76;100.00
53651;BME280;39552;45.776;15.892;2023-01-05T04:35:44;100850.38;;;5.74;100.00
53651;BME280;39552;45.776;15.892;2023-01-05T04:38:21;100839.22;;;5.58;100.00
53651;BME280;39552;45.776;15.892;2023-01-05T04:41:02;100836.81;;;5.49;100.00
53651;BME280;39552;45.776;15.892;2023-01-05T04:43:34;100821.84;;;5.40;100.00
53651;BME280;39552;45.776;15.892;2023-01-05T04:49:07;100821.56;;;5.20;100.00
53651;BME280;39552;45.776;15.892;2023-01-05T04:51:58;100848.50;;;5.46;100.00
53651;BME280;39552;45.776;15.892;2023-01-05T04:54:34;100813.75;;;5.42;100.00
53651;BME280;39552;45.776;15.892;2023-01-05T04:57:14;100833.53;;;5.69;100.00
53651;BME280;39552;45.776;15.892;2023-01-05T04:59:46;100804.50;;;5.52;100.00
53651;BME280;39552;45.776;15.892;2023-01-05T05:02:22;100796.63;;;5.46;100.00
53651;BME280;39552;45.776;15.892;2023-01-05T05:04:58;100804.06;;;5.36;100.00
53651;BME280;39552;45.776;15.892;2023-01-05T05:07:35;100808.00;;;5.24;100.00
53651;BME280;39552;45.776;15.892;2023-01-05T05:10:22;100791.91;;;5.24;100.00
53651;BME280;39552;45.776;15.892;2023-01-05T05:12:51;100805.03;;;5.35;100.00
53651;BME280;39552;45.776;15.892;2023-01-05T05:15:28;100813.97;;;5.34;100.00
53651;BME280;39552;45.776;15.892;2023-01-05T05:18:24;100793.13;;;4.81;100.00
53651;BME280;39552;45.776;15.892;2023-01-05T05:21:05;100810.34;;;5.04;100.00
53651;BME280;39552;45.776;15.892;2023-01-05T05:24:01;100834.75;;;5.27;100.00
53651;BME280;39552;45.776;15.892;2023-01-05T05:26:31;100820.72;;;5.49;100.00
53651;BME280;39552;45.776;15.892;2023-01-05T05:29:12;100775.66;;;5.29;100.00
53651;BME280;39552;45.776;15.892;2023-01-05T05:31:49;100790.25;;;5.20;100.00
53651;BME280;39552;45.776;15.892;2023-01-05T05:34:40;100787.59;;;5.48;100.00
53651;BME280;39552;45.776;15.892;2023-01-05T05:37:21;100787.28;;;5.59;100.00
53651;BME280;39552;45.776;15.892;2023-01-05T05:40:15;100767.81;;;5.53;100.00
53651;BME280;39552;45.776;15.892;2023-01-05T05:42:54;100766.91;;;5.52;100.00
53651;BME280;39552;45.776;15.892;2023-01-05T05:45:26;100762.22;;;5.60;100.00
53651;BME280;39552;45.776;15.892;2023-01-05T05:48:00;100792.69;;;5.87;100.00
53651;BME280;39552;45.776;15.892;2023-01-05T05:50:58;100808.09;;;5.81;100.00
53651;BME280;39552;45.776;15.892;2023-01-05T05:54:00;100807.97;;;5.85;100.00
53651;BME280;39552;45.776;15.892;2023-01-05T05:59:27;100810.34;;;5.95;100.00
53651;BME280;39552;45.776;15.892;2023-01-05T06:02:01;100818.34;;;5.98;100.00
53651;BME280;39552;45.776;15.892;2023-01-05T06:04:34;100800.78;;;5.86;100.00
53651;BME280;39552;45.776;15.892;2023-01-05T06:07:11;100800.19;;;6.06;100.00
53651;BME280;39552;45.776;15.892;2023-01-05T06:09:45;100802.91;;;6.04;100.00
53651;BME280;39552;45.776;15.892;2023-01-05T06:15:15;100783.88;;;5.82;100.00
53651;BME280;39552;45.776;15.892;2023-01-05T06:17:56;100794.56;;;5.85;100.00
53651;BME280;39552;45.776;15.892;2023-01-05T06:20:34;100781.88;;;5.89;100.00
53651;BME280;39552;45.776;15.892;2023-01-05T06:23:11;100775.63;;;5.88;100.00
53651;BME280;39552;45.776;15.892;2023-01-05T06:25:47;100795.78;;;6.03;100.00
53651;BME280;39552;45.776;15.892;2023-01-05T06:28:27;100779.69;;;5.74;100.00
53651;BME280;39552;45.776;15.892;2023-01-05T06:30:54;100767.88;;;5.79;100.00
53651;BME280;39552;45.776;15.892;2023-01-05T06:33:33;100755.72;;;5.67;100.00
53651;BME280;39552;45.776;15.892;2023-01-05T06:36:10;100746.03;;;5.62;100.00
53651;BME280;39552;45.776;15.892;2023-01-05T06:38:48;100771.06;;;5.92;100.00
53651;BME280;39552;45.776;15.892;2023-01-05T06:41:44;100771.34;;;5.83;100.00
53651;BME280;39552;45.776;15.892;2023-01-05T06:44:29;100766.50;;;5.66;100.00
53651;BME280;39552;45.776;15.892;2023-01-05T06:47:36;100776.28;;;5.68;100.00
53651;BME280;39552;45.776;15.892;2023-01-05T06:50:18;100754.81;;;5.68;100.00
53651;BME280;39552;45.776;15.892;2023-01-05T06:52:54;100743.25;;;5.66;100.00
53651;BME280;39552;45.776;15.892;2023-01-05T06:55:31;100752.75;;;5.77;100.00
53651;BME280;39552;45.776;15.892;2023-01-05T06:58:30;100741.94;;;5.80;100.00
53651;BME280;39552;45.776;15.892;2023-01-05T07:01:22;100771.75;;;5.70;100.00
53651;BME280;39552;45.776;15.892;2023-01-05T07:04:06;100765.84;;;5.87;100.00
53651;BME280;39552;45.776;15.892;2023-01-05T07:06:48;100735.34;;;5.88;100.00
53651;BME280;39552;45.776;15.892;2023-01-05T07:09:35;100738.69;;;5.97;100.00
53651;BME280;39552;45.776;15.892;2023-01-05T07:12:09;100759.69;;;6.12;100.00
53651;BME280;39552;45.776;15.892;2023-01-05T07:14:46;100743.06;;;6.01;100.00
53651;BME280;39552;45.776;15.892;2023-01-05T07:17:41;100753.78;;;6.27;100.00
53651;BME280;39552;45.776;15.892;2023-01-05T07:20:28;100732.13;;;6.07;100.00
53651;BME280;39552;45.776;15.892;2023-01-05T07:23:01;100723.06;;;6.09;100.00
53651;BME280;39552;45.776;15.892;2023-01-05T07:25:41;100735.25;;;6.20;100.00
53651;BME280;39552;45.776;15.892;2023-01-05T07:28:12;100760.38;;;6.19;100.00
53651;BME280;39552;45.776;15.892;2023-01-05T07:30:49;100762.09;;;6.20;100.00
53651;BME280;39552;45.776;15.892;2023-01-05T07:33:55;100763.50;;;6.32;100.00
53651;BME280;39552;45.776;15.892;2023-01-05T07:36:30;100745.59;;;6.32;100.00
53651;BME280;39552;45.776;15.892;2023-01-05T07:39:13;100754.81;;;6.50;100.00
53651;BME280;39552;45.776;15.892;2023-01-05T07:41:53;100749.66;;;6.44;100.00
53651;BME280;39552;45.776;15.892;2023-01-05T07:44:20;100739.97;;;6.40;100.00
53651;BME280;39552;45.776;15.892;2023-01-05T07:46:51;100751.97;;;6.55;100.00
53651;BME280;39552;45.776;15.892;2023-01-05T07:49:19;100749.78;;;6.66;100.00
53651;BME280;39552;45.776;15.892;2023-01-05T07:51:46;100756.75;;;6.72;100.00
53651;BME280;39552;45.776;15.892;2023-01-05T07:54:13;100735.97;;;6.77;100.00
53651;BME280;39552;45.776;15.892;2023-01-05T07:56:42;100747.53;;;6.79;100.00
53651;BME280;39552;45.776;15.892;2023-01-05T07:59:09;100740.53;;;6.75;100.00
53651;BME280;39552;45.776;15.892;2023-01-05T08:01:36;100745.13;;;6.71;100.00
53651;BME280;39552;45.776;15.892;2023-01-05T08:04:03;100763.63;;;6.80;100.00
53651;BME280;39552;45.776;15.892;2023-01-05T08:06:31;100763.88;;;6.98;100.00
53651;BME280;39552;45.776;15.892;2023-01-05T08:08:59;100777.47;;;6.93;100.00
53651;BME280;39552;45.776;15.892;2023-01-05T08:11:26;100752.38;;;6.94;100.00
53651;BME280;39552;45.776;15.892;2023-01-05T08:14:04;100744.63;;;6.85;100.00
53651;BME280;39552;45.776;15.892;2023-01-05T08:17:13;100765.25;;;7.09;100.00
53651;BME280;39552;45.776;15.892;2023-01-05T08:19:49;100739.22;;;7.10;100.00
53651;BME280;39552;45.776;15.892;2023-01-05T08:22:26;100754.81;;;7.24;100.00
53651;BME280;39552;45.776;15.892;2023-01-05T08:25:19;100775.91;;;7.36;100.00
53651;BME280;39552;45.776;15.892;2023-01-05T08:28:00;100759.38;;;7.45;100.00
53651;BME280;39552;45.776;15.892;2023-01-05T08:30:37;100759.22;;;7.50;100.00
53651;BME280;39552;45.776;15.892;2023-01-05T08:33:07;100762.38;;;7.61;100.00
53651;BME280;39552;45.776;15.892;2023-01-05T08:35:49;100776.81;;;7.82;100.00
53651;BME280;39552;45.776;15.892;2023-01-05T08:38:19;100751.00;;;7.77;100.00
53651;BME280;39552;45.776;15.892;2023-01-05T08:40:46;100755.06;;;7.87;100.00
53651;BME280;39552;45.776;15.892;2023-01-05T08:43:40;100743.13;;;7.94;100.00
53651;BME280;39552;45.776;15.892;2023-01-05T08:46:18;100773.75;;;8.14;100.00
53651;BME280;39552;45.776;15.892;2023-01-05T08:48:47;100770.69;;;8.23;100.00
53651;BME280;39552;45.776;15.892;2023-01-05T08:51:14;100748.53;;;8.15;100.00
53651;BME280;39552;45.776;15.892;2023-01-05T08:53:43;100748.84;;;8.29;100.00
53651;BME280;39552;45.776;15.892;2023-01-05T08:56:13;100753.91;;;8.37;100.00
53651;BME280;39552;45.776;15.892;2023-01-05T08:58:40;100767.72;;;8.51;100.00
53651;BME280;39552;45.776;15.892;2023-01-05T09:01:08;100782.06;;;8.52;100.00
53651;BME280;39552;45.776;15.892;2023-01-05T09:03:35;100790.50;;;8.64;100.00
53651;BME280;39552;45.776;15.892;2023-01-05T09:06:09;100752.88;;;8.61;100.00
53651;BME280;39552;45.776;15.892;2023-01-05T09:08:52;100749.66;;;8.74;100.00
53651;BME280;39552;45.776;15.892;2023-01-05T09:11:21;100748.63;;;8.76;100.00
53651;BME280;39552;45.776;15.892;2023-01-05T09:13:50;100767.81;;;8.91;100.00
53651;BME280;39552;45.776;15.892;2023-01-05T09:16:19;100769.06;;;9.02;100.00
53651;BME280;39552;45.776;15.892;2023-01-05T09:19:07;100761.97;;;9.00;100.00
53651;BME280;39552;45.776;15.892;2023-01-05T09:21:35;100736.75;;;9.01;100.00
53651;BME280;39552;45.776;15.892;2023-01-05T09:24:03;100755.75;;;9.18;100.00
53651;BME280;39552;45.776;15.892;2023-01-05T09:26:30;100743.91;;;9.21;100.00
53651;BME280;39552;45.776;15.892;2023-01-05T09:29:07;100749.94;;;9.28;100.00
53651;BME280;39552;45.776;15.892;2023-01-05T09:31:43;100737.59;;;9.22;100.00
53651;BME280;39552;45.776;15.892;2023-01-05T09:34:28;100725.75;;;9.24;100.00
53651;BME280;39552;45.776;15.892;2023-01-05T09:36:54;100726.56;;;9.27;100.00
53651;BME280;39552;45.776;15.892;2023-01-05T09:39:28;100736.28;;;9.50;100.00
53651;BME280;39552;45.776;15.892;2023-01-05T09:42:20;100724.69;;;9.48;100.00
53651;BME280;39552;45.776;15.892;2023-01-05T09:45:27;100733.28;;;9.56;100.00
53651;BME280;39552;45.776;15.892;2023-01-05T09:48:01;100729.34;;;9.63;100.00
53651;BME280;39552;45.776;15.892;2023-01-05T09:50:34;100734.97;;;9.77;100.00
53651;BME280;39552;45.776;15.892;2023-01-05T09:56:13;100703.50;;;9.76;100.00
53651;BME280;39552;45.776;15.892;2023-01-05T09:59:27;100694.38;;;9.96;100.00
53651;BME280;39552;45.776;15.892;2023-01-05T10:02:09;100696.94;;;9.99;100.00
53651;BME280;39552;45.776;15.892;2023-01-05T10:05:04;100697.28;;;10.11;100.00
53651;BME280;39552;45.776;15.892;2023-01-05T10:07:42;100681.69;;;10.16;100.00
53651;BME280;39552;45.776;15.892;2023-01-05T10:10:43;100703.72;;;10.26;100.00
53651;BME280;39552;45.776;15.892;2023-01-05T10:13:39;100700.59;;;10.35;100.00
53651;BME280;39552;45.776;15.892;2023-01-05T10:16:23;100707.09;;;10.48;100.00
53651;BME280;39552;45.776;15.892;2023-01-05T10:19:18;100701.47;;;10.53;100.00
53651;BME280;39552;45.776;15.892;2023-01-05T10:22:02;100695.75;;;10.59;100.00
53651;BME280;39552;45.776;15.892;2023-01-05T10:24:49;100719.88;;;10.79;100.00
53651;BME280;39552;45.776;15.892;2023-01-05T10:27:52;100721.31;;;10.87;100.00
53651;BME280;39552;45.776;15.892;2023-01-05T10:30:53;100682.00;;;10.79;100.00
53651;BME280;39552;45.776;15.892;2023-01-05T10:37:11;100676.25;;;11.03;100.00
53651;BME280;39552;45.776;15.892;2023-01-05T10:49:45;100662.28;;;11.27;100.00
53651;BME280;39552;45.776;15.892;2023-01-05T10:52:36;100678.13;;;11.50;100.00
53651;BME280;39552;45.776;15.892;2023-01-05T10:56:21;100654.09;;;11.44;100.00
53651;BME280;39552;45.776;15.892;2023-01-05T10:58:34;100659.03;;;11.68;100.00
53651;BME280;39552;45.776;15.892;2023-01-05T11:01:25;100641.28;;;11.78;100.00
53651;BME280;39552;45.776;15.892;2023-01-05T11:04:14;100663.31;;;12.04;100.00
53651;BME280;39552;45.776;15.892;2023-01-05T11:13:03;100633.53;;;12.18;100.00
53651;BME280;39552;45.776;15.892;2023-01-05T11:16:59;100638.41;;;12.27;100.00
53651;BME280;39552;45.776;15.892;2023-01-05T11:21:06;100613.28;;;12.09;100.00
53651;BME280;39552;45.776;15.892;2023-01-05T11:25:25;100585.53;;;12.34;100.00
53651;BME280;39552;45.776;15.892;2023-01-05T11:28:11;100593.06;;;12.44;100.00
53651;BME280;39552;45.776;15.892;2023-01-05T11:38:21;100584.56;;;12.50;100.00
53651;BME280;39552;45.776;15.892;2023-01-05T11:41:09;100592.03;;;12.61;100.00
53651;BME280;39552;45.776;15.892;2023-01-05T11:43:40;100578.66;;;12.57;100.00
53651;BME280;39552;45.776;15.892;2023-01-05T11:46:20;100599.50;;;12.71;100.00
53651;BME280;39552;45.776;15.892;2023-01-05T11:49:32;100604.16;;;12.84;100.00
53651;BME280;39552;45.776;15.892;2023-01-05T11:52:42;100598.44;;;12.74;100.00
53651;BME280;39552;45.776;15.892;2023-01-05T11:55:50;100598.72;;;12.84;100.00
53651;BME280;39552;45.776;15.892;2023-01-05T11:58:43;100613.53;;;12.78;100.00
53651;BME280;39552;45.776;15.892;2023-01-05T12:01:53;100595.53;;;12.77;100.00
53651;BME280;39552;45.776;15.892;2023-01-05T12:05:34;100587.47;;;12.75;100.00
53651;BME280;39552;45.776;15.892;2023-01-05T12:08:25;100576.31;;;12.51;100.00
53651;BME280;39552;45.776;15.892;2023-01-05T12:11:17;100581.84;;;12.64;100.00
53651;BME280;39552;45.776;15.892;2023-01-05T12:17:15;100594.66;;;12.62;100.00
53651;BME280;39552;45.776;15.892;2023-01-05T12:24:07;100571.97;;;12.34;100.00
53651;BME280;39552;45.776;15.892;2023-01-05T12:26:49;100597.38;;;12.48;100.00
53651;BME280;39552;45.776;15.892;2023-01-05T12:30:08;100579.31;;;12.32;100.00
53651;BME280;39552;45.776;15.892;2023-01-05T12:36:16;100592.06;;;12.30;100.00
53651;BME280;39552;45.776;15.892;2023-01-05T12:39:02;100604.41;;;12.36;100.00
53651;BME280;39552;45.776;15.892;2023-01-05T12:42:14;100591.91;;;12.33;100.00
53651;BME280;39552;45.776;15.892;2023-01-05T12:45:03;100585.31;;;12.37;100.00
53651;BME280;39552;45.776;15.892;2023-01-05T12:47:48;100579.66;;;12.26;100.00
53651;BME280;39552;45.776;15.892;2023-01-05T12:50:26;100583.69;;;12.35;100.00
53651;BME280;39552;45.776;15.892;2023-01-05T12:53:00;100571.34;;;12.29;100.00
53651;BME280;39552;45.776;15.892;2023-01-05T12:58:26;100566.06;;;12.42;100.00
53651;BME280;39552;45.776;15.892;2023-01-05T13:00:55;100570.03;;;12.36;100.00
53651;BME280;39552;45.776;15.892;2023-01-05T13:03:29;100559.81;;;12.26;100.00
53651;BME280;39552;45.776;15.892;2023-01-05T13:06:20;100559.81;;;12.26;100.00
53651;BME280;39552;45.776;15.892;2023-01-05T13:09:08;100538.19;;;12.10;100.00
53651;BME280;39552;45.776;15.892;2023-01-05T13:12:05;100552.53;;;12.26;100.00
53651;BME280;39552;45.776;15.892;2023-01-05T13:15:39;100543.94;;;12.19;100.00
53651;BME280;39552;45.776;15.892;2023-01-05T13:18:13;100558.88;;;12.27;100.00
53651;BME280;39552;45.776;15.892;2023-01-05T13:21:05;100533.56;;;12.12;100.00
53651;BME280;39552;45.776;15.892;2023-01-05T13:24:05;100556.72;;;12.17;100.00
53651;BME280;39552;45.776;15.892;2023-01-05T13:26:46;100549.25;;;12.21;100.00
53651;BME280;39552;45.776;15.892;2023-01-05T13:33:51;100544.22;;;12.15;100.00
53651;BME280;39552;45.776;15.892;2023-01-05T13:36:05;100533.47;;;12.13;100.00
53651;BME280;39552;45.776;15.892;2023-01-05T13:42:05;100566.22;;;12.25;100.00
53651;BME280;39552;45.776;15.892;2023-01-05T13:58:38;100584.78;;;12.16;100.00
53651;BME280;39552;45.776;15.892;2023-01-05T14:01:44;100559.97;;;12.08;100.00
53651;BME280;39552;45.776;15.892;2023-01-05T14:04:57;100576.56;;;12.04;100.00
53651;BME280;39552;45.776;15.892;2023-01-05T14:07:59;100569.56;;;11.99;100.00
53651;BME280;39552;45.776;15.892;2023-01-05T14:11:35;100592.81;;;12.04;100.00
53651;BME280;39552;45.776;15.892;2023-01-05T14:18:20;100592.22;;;11.98;100.00
53651;BME280;39552;45.776;15.892;2023-01-05T14:24:57;100613.41;;;11.92;100.00
53651;BME280;39552;45.776;15.892;2023-01-05T14:28:20;100618.72;;;11.93;100.00
53651;BME280;39552;45.776;15.892;2023-01-05T14:31:36;100599.13;;;11.88;100.00
53651;BME280;39552;45.776;15.892;2023-01-05T14:34:28;100607.41;;;12.01;100.00
53651;BME280;39552;45.776;15.892;2023-01-05T14:37:55;100600.28;;;11.84;100.00
53651;BME280;39552;45.776;15.892;2023-01-05T14:40:45;100595.97;;;11.80;100.00
53651;BME280;39552;45.776;15.892;2023-01-05T14:43:53;100607.50;;;11.84;100.00
53651;BME280;39552;45.776;15.892;2023-01-05T14:47:32;100630.47;;;11.94;100.00
53651;BME280;39552;45.776;15.892;2023-01-05T14:53:43;100632.69;;;11.86;100.00
53651;BME280;39552;45.776;15.892;2023-01-05T14:56:26;100636.19;;;11.88;100.00
53651;BME280;39552;45.776;15.892;2023-01-05T14:59:26;100628.00;;;11.89;100.00
53651;BME280;39552;45.776;15.892;2023-01-05T15:03:36;100611.47;;;11.78;100.00
53651;BME280;39552;45.776;15.892;2023-01-05T15:05:16;100649.31;;;11.95;100.00
53651;BME280;39552;45.776;15.892;2023-01-05T15:17:30;100640.94;;;11.84;100.00
53651;BME280;39552;45.776;15.892;2023-01-05T15:23:13;100654.25;;;11.73;100.00
53651;BME280;39552;45.776;15.892;2023-01-05T15:26:02;100653.97;;;11.77;100.00
53651;BME280;39552;45.776;15.892;2023-01-05T15:28:58;100654.84;;;11.78;100.00
53651;BME280;39552;45.776;15.892;2023-01-05T15:31:34;100651.91;;;11.67;100.00
53651;BME280;39552;45.776;15.892;2023-01-05T15:34:14;100660.00;;;11.83;100.00
53651;BME280;39552;45.776;15.892;2023-01-05T15:36:48;100656.19;;;11.71;100.00
53651;BME280;39552;45.776;15.892;2023-01-05T15:39:29;100658.88;;;11.71;100.00
53651;BME280;39552;45.776;15.892;2023-01-05T15:41:59;100670.50;;;11.73;100.00
53651;BME280;39552;45.776;15.892;2023-01-05T15:44:31;100671.56;;;11.54;100.00
53651;BME280;39552;45.776;15.892;2023-01-05T15:47:00;100677.69;;;11.58;100.00
53651;BME280;39552;45.776;15.892;2023-01-05T15:49:32;100682.38;;;11.54;100.00
53651;BME280;39552;45.776;15.892;2023-01-05T15:51:59;100677.16;;;11.51;100.00
53651;BME280;39552;45.776;15.892;2023-01-05T15:54:28;100678.19;;;11.49;100.00
53651;BME280;39552;45.776;15.892;2023-01-05T15:56:56;100669.47;;;11.44;100.00
53651;BME280;39552;45.776;15.892;2023-01-05T15:59:32;100663.00;;;11.46;100.00
53651;BME280;39552;45.776;15.892;2023-01-05T16:01:59;100675.75;;;11.44;100.00
53651;BME280;39552;45.776;15.892;2023-01-05T16:04:26;100678.28;;;11.47;100.00
53651;BME280;39552;45.776;15.892;2023-01-05T16:06:58;100674.78;;;11.45;100.00
53651;BME280;39552;45.776;15.892;2023-01-05T16:09:29;100675.47;;;11.49;100.00
53651;BME280;39552;45.776;15.892;2023-01-05T16:11:59;100670.56;;;11.39;100.00
53651;BME280;39552;45.776;15.892;2023-01-05T16:14:29;100673.13;;;11.43;100.00
53651;BME280;39552;45.776;15.892;2023-01-05T16:17:01;100670.16;;;11.31;100.00